createdAt,value
2018-03-31T00:02:05.790Z,6.70
2018-03-31T00:04:34.737Z,6.70
2018-03-31T00:07:03.310Z,6.70
2018-03-31T00:09:31.805Z,6.40
2018-03-31T00:12:01.583Z,6.40
2018-03-31T00:14:30.963Z,6.50
2018-03-31T00:17:00.336Z,6.50
2018-03-31T00:19:28.735Z,6.50
2018-03-31T00:21:57.442Z,6.50
2018-03-31T00:24:26.949Z,6.50
2018-03-31T00:26:57.594Z,6.20
2018-03-31T00:29:26.481Z,6.20
2018-03-31T00:31:56.109Z,6.20
2018-03-31T00:34:25.460Z,6.20
2018-03-31T00:36:54.872Z,6.30
2018-03-31T00:39:23.404Z,6.20
2018-03-31T00:41:52.343Z,6.20
2018-03-31T00:44:20.650Z,6.10
2018-03-31T00:46:49.485Z,6.00
2018-03-31T00:49:18.362Z,5.80
2018-03-31T00:51:46.945Z,5.80
2018-03-31T00:54:15.327Z,5.60
2018-03-31T00:56:44.269Z,5.50
2018-03-31T00:59:13.718Z,5.50
2018-03-31T01:01:43.041Z,5.50
2018-03-31T01:04:13.228Z,5.50
2018-03-31T01:06:42.137Z,5.50
2018-03-31T01:09:11.365Z,5.30
2018-03-31T01:11:40.434Z,5.20
2018-03-31T01:14:09.853Z,5.50
2018-03-31T01:16:38.312Z,5.50
2018-03-31T01:19:07.057Z,5.30
2018-03-31T01:21:35.339Z,5.10
2018-03-31T01:24:03.987Z,5.20
2018-03-31T01:26:32.737Z,5.30
2018-03-31T01:29:01.423Z,5.40
2018-03-31T01:31:30.200Z,5.20
2018-03-31T01:33:58.952Z,5.30
2018-03-31T01:36:27.967Z,5.30
2018-03-31T01:38:57.413Z,5.20
2018-03-31T01:41:26.371Z,5.10
2018-03-31T01:43:55.805Z,5.10
2018-03-31T01:46:33.403Z,5.00
2018-03-31T01:49:02.678Z,5.10
2018-03-31T01:51:31.081Z,5.20
2018-03-31T01:53:59.835Z,5.30
2018-03-31T01:56:28.602Z,5.40
2018-03-31T01:58:57.617Z,5.30
2018-03-31T02:01:26.547Z,5.30
2018-03-31T02:03:55.399Z,5.20
2018-03-31T02:06:24.171Z,5.10
2018-03-31T02:08:53.058Z,4.90
2018-03-31T02:11:21.948Z,5.00
2018-03-31T02:13:51.299Z,5.00
2018-03-31T02:16:20.144Z,4.90
2018-03-31T02:18:48.950Z,4.80
2018-03-31T02:21:18.536Z,4.70
2018-03-31T02:23:47.683Z,4.70
2018-03-31T02:26:17.200Z,4.50
2018-03-31T02:28:46.466Z,4.50
2018-03-31T02:31:15.895Z,4.60
2018-03-31T02:33:44.688Z,4.70
2018-03-31T02:36:13.521Z,4.70
2018-03-31T02:38:43.036Z,4.60
2018-03-31T02:41:13.980Z,4.60
2018-03-31T02:43:43.270Z,4.70
2018-03-31T02:46:12.774Z,4.50
2018-03-31T02:48:41.669Z,4.50
2018-03-31T02:51:10.130Z,4.60
2018-03-31T02:53:38.676Z,4.50
2018-03-31T02:56:07.516Z,4.60
2018-03-31T02:58:37.019Z,4.80
2018-03-31T03:01:06.527Z,4.60
2018-03-31T03:03:36.033Z,4.50
2018-03-31T03:06:04.369Z,4.50
2018-03-31T03:08:33.709Z,4.80
2018-03-31T03:11:02.354Z,4.80
2018-03-31T03:13:30.884Z,4.90
2018-03-31T03:15:59.553Z,5.00
2018-03-31T03:18:29.403Z,5.20
2018-03-31T03:20:58.060Z,5.20
2018-03-31T03:23:26.512Z,5.00
2018-03-31T03:25:54.894Z,5.00
2018-03-31T03:28:23.100Z,5.10
2018-03-31T03:30:51.584Z,5.30
2018-03-31T03:33:20.101Z,5.20
2018-03-31T03:35:49.193Z,5.30
2018-03-31T03:38:17.439Z,5.30
2018-03-31T03:40:46.425Z,5.30
2018-03-31T03:43:15.467Z,5.50
2018-03-31T03:45:43.809Z,5.40
2018-03-31T03:48:12.622Z,5.60
2018-03-31T03:50:40.688Z,5.60
2018-03-31T03:53:09.754Z,5.70
2018-03-31T03:55:38.264Z,5.70
2018-03-31T03:58:06.613Z,5.80
2018-03-31T04:00:35.054Z,6.00
2018-03-31T04:03:03.689Z,6.10
2018-03-31T04:05:35.365Z,6.20
2018-03-31T04:08:04.752Z,6.10
2018-03-31T04:10:33.628Z,6.10
2018-03-31T04:13:02.289Z,5.90
2018-03-31T04:15:30.468Z,5.60
2018-03-31T04:17:58.889Z,5.70
2018-03-31T04:20:27.258Z,5.80
2018-03-31T04:22:55.468Z,5.90
2018-03-31T04:25:24.359Z,6.00
2018-03-31T04:27:52.591Z,6.00
2018-03-31T04:30:21.910Z,6.20
2018-03-31T04:32:50.228Z,6.20
2018-03-31T04:35:19.512Z,6.10
2018-03-31T04:37:49.307Z,6.30
2018-03-31T04:40:17.695Z,6.30
2018-03-31T04:42:46.196Z,6.30
2018-03-31T04:45:15.347Z,5.80
2018-03-31T04:47:45.437Z,5.70
2018-03-31T04:50:13.676Z,5.70
2018-03-31T04:52:42.532Z,5.80
2018-03-31T04:55:13.873Z,5.80
2018-03-31T04:57:42.190Z,5.80
2018-03-31T05:00:11.482Z,6.00
2018-03-31T05:02:40.472Z,6.10
2018-03-31T05:05:08.806Z,6.10
2018-03-31T05:07:38.035Z,6.30
2018-03-31T05:10:06.280Z,6.20
2018-03-31T05:12:35.595Z,6.30
2018-03-31T05:15:08.632Z,6.30
2018-03-31T05:17:38.192Z,6.40
2018-03-31T05:20:06.773Z,6.40
2018-03-31T05:22:36.814Z,6.30
2018-03-31T05:25:05.635Z,6.40
2018-03-31T05:27:34.142Z,6.40
2018-03-31T05:30:03.478Z,6.50
2018-03-31T05:32:31.640Z,6.60
2018-03-31T05:35:00.118Z,6.50
2018-03-31T05:37:28.451Z,6.50
2018-03-31T05:39:56.624Z,6.40
2018-03-31T05:42:25.085Z,6.30
2018-03-31T05:44:53.819Z,6.20
2018-03-31T05:47:22.410Z,6.00
2018-03-31T05:49:50.746Z,5.90
2018-03-31T05:52:19.162Z,6.00
2018-03-31T05:54:48.360Z,6.30
2018-03-31T05:57:16.535Z,6.30
2018-03-31T05:59:44.757Z,6.40
2018-03-31T06:02:13.530Z,6.30
2018-03-31T06:04:42.690Z,5.80
2018-03-31T06:07:11.060Z,5.70
2018-03-31T06:09:41.259Z,5.70
2018-03-31T06:12:26.646Z,5.80
2018-03-31T06:14:56.066Z,5.90
2018-03-31T06:17:25.120Z,6.10
2018-03-31T06:19:54.809Z,6.10
2018-03-31T06:22:23.179Z,6.00
2018-03-31T06:24:51.678Z,5.80
2018-03-31T06:27:25.249Z,6.20
2018-03-31T06:29:53.754Z,6.20
2018-03-31T06:32:22.662Z,6.20
2018-03-31T06:34:50.872Z,6.30
2018-03-31T06:37:19.480Z,6.10
2018-03-31T06:39:49.947Z,6.20
2018-03-31T06:42:19.092Z,6.40
2018-03-31T06:44:47.891Z,6.40
2018-03-31T06:47:16.857Z,6.50
2018-03-31T06:49:45.625Z,6.40
2018-03-31T06:52:20.537Z,6.40
2018-03-31T06:54:49.571Z,6.40
2018-03-31T06:57:19.025Z,6.50
2018-03-31T06:59:48.119Z,6.50
2018-03-31T07:02:17.229Z,6.50
2018-03-31T07:04:45.749Z,6.60
2018-03-31T07:09:55.659Z,6.60
2018-03-31T07:12:26.609Z,6.50
2018-03-31T07:15:00.578Z,6.50
2018-03-31T07:17:29.577Z,6.40
2018-03-31T07:19:57.871Z,6.50
2018-03-31T07:22:27.256Z,6.70
2018-03-31T07:24:57.240Z,6.70
2018-03-31T07:27:27.221Z,6.60
2018-03-31T07:29:58.163Z,6.60
2018-03-31T07:32:28.532Z,6.20
2018-03-31T07:34:57.111Z,6.20
2018-03-31T07:37:26.258Z,6.40
2018-03-31T07:40:03.869Z,6.40
2018-03-31T07:42:32.340Z,6.50
2018-03-31T07:45:02.089Z,6.20
2018-03-31T07:47:31.801Z,6.20
2018-03-31T07:53:15.773Z,6.10
2018-03-31T07:55:52.053Z,5.60
2018-03-31T07:58:20.465Z,5.30
2018-03-31T08:00:59.298Z,5.50
2018-03-31T08:03:29.723Z,5.60
2018-03-31T08:06:04.547Z,5.80
2018-03-31T08:08:34.159Z,5.70
2018-03-31T08:11:02.887Z,5.60
2018-03-31T08:13:39.867Z,5.70
2018-03-31T08:16:24.546Z,5.50
2018-03-31T08:18:53.882Z,5.70
2018-03-31T08:21:23.118Z,5.80
2018-03-31T08:23:53.502Z,5.90
2018-03-31T08:26:32.872Z,5.90
2018-03-31T08:29:05.088Z,5.90
2018-03-31T08:31:34.843Z,6.10
2018-03-31T08:34:03.655Z,6.10
2018-03-31T08:36:33.823Z,6.40
2018-03-31T08:39:03.263Z,6.30
2018-03-31T08:41:33.564Z,6.40
2018-03-31T08:44:02.408Z,6.40
2018-03-31T08:46:33.451Z,6.40
2018-03-31T08:49:02.234Z,6.00
2018-03-31T08:51:32.991Z,5.70
2018-03-31T08:54:03.060Z,5.60
2018-03-31T09:00:07.940Z,5.70
2018-03-31T09:02:38.407Z,5.60
2018-03-31T09:05:08.323Z,5.70
2018-03-31T09:07:36.873Z,5.70
2018-03-31T09:10:05.738Z,5.70
2018-03-31T09:12:36.261Z,6.00
2018-03-31T09:15:06.419Z,6.00
2018-03-31T09:17:35.990Z,6.00
2018-03-31T09:20:05.549Z,6.40
2018-03-31T09:22:37.766Z,6.40
2018-03-31T09:25:07.309Z,6.60
2018-03-31T09:27:36.246Z,6.60
2018-03-31T09:30:10.308Z,6.80
2018-03-31T09:32:40.986Z,6.90
2018-03-31T09:35:11.321Z,6.90
2018-03-31T09:37:40.778Z,6.90
2018-03-31T09:40:10.425Z,6.80
2018-03-31T09:42:39.180Z,6.80
2018-03-31T09:45:08.924Z,7.00
2018-03-31T09:47:40.529Z,7.20
2018-03-31T09:50:19.939Z,7.20
2018-03-31T09:52:50.597Z,7.40
2018-03-31T09:55:19.133Z,7.60
2018-03-31T09:57:48.741Z,7.70
2018-03-31T10:00:28.001Z,7.80
2018-03-31T10:03:27.156Z,7.80
2018-03-31T10:06:07.369Z,8.10
2018-03-31T10:09:05.486Z,8.30
2018-03-31T10:11:35.063Z,8.60
2018-03-31T10:14:04.297Z,9.00
2018-03-31T10:16:33.445Z,9.20
2018-03-31T10:19:05.821Z,9.90
2018-03-31T10:21:35.290Z,9.90
2018-03-31T10:24:04.590Z,10.10
2018-03-31T10:26:33.225Z,9.50
2018-03-31T10:32:10.788Z,9.20
2018-03-31T10:37:43.674Z,8.10
2018-03-31T10:40:36.686Z,8.20
2018-03-31T10:43:06.777Z,8.20
2018-03-31T10:45:36.439Z,7.40
2018-03-31T10:48:06.832Z,7.40
2018-03-31T10:50:36.659Z,7.30
2018-03-31T10:53:07.004Z,7.50
2018-03-31T10:55:36.459Z,7.50
2018-03-31T10:58:08.684Z,7.10
2018-03-31T11:00:50.534Z,7.30
2018-03-31T11:03:22.371Z,6.80
2018-03-31T11:06:00.172Z,6.80
2018-03-31T11:08:29.807Z,6.90
2018-03-31T11:10:58.266Z,6.90
2018-03-31T11:13:45.831Z,7.00
2018-03-31T11:16:24.435Z,7.30
2018-03-31T11:18:54.944Z,7.90
2018-03-31T11:21:23.676Z,7.90
2018-03-31T11:23:55.609Z,7.30
2018-03-31T11:26:55.810Z,7.30
2018-03-31T11:29:24.168Z,7.50
2018-03-31T11:31:53.122Z,7.00
2018-03-31T11:34:33.177Z,6.80
2018-03-31T11:37:02.719Z,6.90
2018-03-31T11:39:37.861Z,6.80
2018-03-31T11:42:07.638Z,7.00
2018-03-31T11:44:41.326Z,6.80
2018-03-31T11:47:10.690Z,6.80
2018-03-31T11:49:39.703Z,7.00
2018-03-31T11:52:10.255Z,6.90
2018-03-31T11:54:48.884Z,6.90
2018-03-31T11:57:18.258Z,7.00
2018-03-31T11:59:48.442Z,7.10
2018-03-31T12:02:19.159Z,7.30
2018-03-31T12:04:47.787Z,7.50
2018-03-31T12:07:28.058Z,7.50
2018-03-31T12:09:57.574Z,7.90
2018-03-31T12:12:27.718Z,7.90
2018-03-31T12:14:56.532Z,7.80
2018-03-31T12:17:25.082Z,7.80
2018-03-31T12:19:55.735Z,7.80
2018-03-31T12:22:25.521Z,7.80
2018-03-31T12:24:54.963Z,8.00
2018-03-31T12:27:23.929Z,8.00
2018-03-31T12:29:53.233Z,7.70
2018-03-31T12:32:22.970Z,7.80
2018-03-31T12:34:56.217Z,7.80
2018-03-31T12:37:25.373Z,7.80
2018-03-31T12:39:55.779Z,8.00
2018-03-31T12:42:24.621Z,7.80
2018-03-31T12:44:55.035Z,7.30
2018-03-31T12:47:55.500Z,7.30
2018-03-31T12:50:26.684Z,7.40
2018-03-31T12:52:57.261Z,7.60
2018-03-31T12:55:33.673Z,7.40
2018-03-31T13:01:01.295Z,7.40
2018-03-31T13:03:36.119Z,7.50
2018-03-31T13:06:04.738Z,7.70
2018-03-31T13:08:34.104Z,7.70
2018-03-31T13:11:02.780Z,7.70
2018-03-31T13:13:30.953Z,7.80
2018-03-31T13:16:03.465Z,8.00
2018-03-31T13:18:39.845Z,8.30
2018-03-31T13:21:11.779Z,8.20
2018-03-31T13:23:40.879Z,7.90
2018-03-31T13:26:12.306Z,7.80
2018-03-31T13:28:42.788Z,8.00
2018-03-31T13:31:11.483Z,7.80
2018-03-31T13:33:56.186Z,7.90
2018-03-31T13:36:29.493Z,8.00
2018-03-31T13:38:57.684Z,7.80
2018-03-31T13:41:31.014Z,7.70
2018-03-31T13:44:00.775Z,7.60
2018-03-31T13:46:31.384Z,7.70
2018-03-31T13:49:02.257Z,7.70
2018-03-31T13:51:32.686Z,7.80
2018-03-31T13:54:02.466Z,7.80
2018-03-31T13:56:31.083Z,7.70
2018-03-31T13:58:59.303Z,7.60
2018-03-31T14:01:40.043Z,7.80
2018-03-31T14:08:32.352Z,8.00
2018-03-31T14:13:53.637Z,7.70
2018-03-31T14:16:22.784Z,7.70
2018-03-31T14:18:51.389Z,7.70
2018-03-31T14:21:22.779Z,8.10
2018-03-31T14:23:51.318Z,8.10
2018-03-31T14:26:23.341Z,7.70
2018-03-31T14:28:53.810Z,7.70
2018-03-31T14:31:22.378Z,7.50
2018-03-31T14:33:50.555Z,7.40
2018-03-31T14:36:21.822Z,7.60
2018-03-31T14:38:50.726Z,7.60
2018-03-31T14:41:19.349Z,7.60
2018-03-31T14:43:47.984Z,7.70
2018-03-31T14:46:22.815Z,7.60
2018-03-31T14:51:34.689Z,7.50
2018-03-31T14:54:04.876Z,7.40
2018-03-31T14:56:34.462Z,7.40
2018-03-31T14:59:03.619Z,7.20
2018-03-31T15:01:42.150Z,7.10
2018-03-31T15:04:23.679Z,7.10
2018-03-31T15:06:54.339Z,7.50
2018-03-31T15:09:49.399Z,7.50
2018-03-31T15:12:17.711Z,7.50
2018-03-31T15:14:49.301Z,7.50
2018-03-31T15:20:45.618Z,7.60
2018-03-31T15:23:19.529Z,7.40
2018-03-31T15:25:49.400Z,7.70
2018-03-31T15:28:18.085Z,7.70
2018-03-31T15:30:47.452Z,7.80
2018-03-31T15:36:45.907Z,7.70
2018-03-31T15:39:17.229Z,7.50
2018-03-31T15:41:47.340Z,7.10
2018-03-31T15:44:16.676Z,7.20
2018-03-31T15:46:48.511Z,7.20
2018-03-31T15:49:17.643Z,7.30
2018-03-31T15:51:49.744Z,7.20
2018-03-31T15:54:19.540Z,7.20
2018-03-31T15:56:49.057Z,7.30
2018-03-31T15:59:18.935Z,7.40
2018-03-31T16:01:47.468Z,7.40
2018-03-31T16:04:23.108Z,7.50
2018-03-31T16:06:52.190Z,7.70
2018-03-31T16:09:20.630Z,7.70
2018-03-31T16:11:51.253Z,7.70
2018-03-31T16:14:19.840Z,7.60
2018-03-31T16:16:55.199Z,7.60
2018-03-31T16:19:24.847Z,7.60
2018-03-31T16:21:53.779Z,7.60
2018-03-31T16:24:22.129Z,7.60
2018-03-31T16:26:56.223Z,7.60
2018-03-31T16:29:25.857Z,7.20
2018-03-31T16:31:54.775Z,6.80
2018-03-31T16:34:23.215Z,6.80
2018-03-31T16:36:52.180Z,6.90
2018-03-31T16:39:20.613Z,6.90
2018-03-31T16:41:49.736Z,6.80
2018-03-31T16:44:20.560Z,6.60
2018-03-31T16:46:49.220Z,6.60
2018-03-31T16:49:18.418Z,6.70
2018-03-31T16:51:47.525Z,6.80
2018-03-31T16:54:16.852Z,6.90
2018-03-31T16:56:46.173Z,6.80
2018-03-31T16:59:15.588Z,7.00
2018-03-31T17:01:43.867Z,7.00
2018-03-31T17:04:12.500Z,6.90
2018-03-31T17:06:41.918Z,6.90
2018-03-31T17:09:13.615Z,7.00
2018-03-31T17:11:42.686Z,7.20
2018-03-31T17:14:10.781Z,7.20
2018-03-31T17:16:41.091Z,7.30
2018-03-31T17:19:11.310Z,7.30
2018-03-31T17:21:40.602Z,7.40
2018-03-31T17:24:10.598Z,7.30
2018-03-31T17:26:40.830Z,7.20
2018-03-31T17:29:09.178Z,7.10
2018-03-31T17:31:39.149Z,7.10
2018-03-31T17:34:09.365Z,7.30
2018-03-31T17:36:37.828Z,7.30
2018-03-31T17:39:05.989Z,7.20
2018-03-31T17:41:34.196Z,6.90
2018-03-31T17:44:02.768Z,7.00
2018-03-31T17:46:31.133Z,7.00
2018-03-31T17:48:59.276Z,6.80
2018-03-31T17:51:27.813Z,6.80
2018-03-31T17:53:57.023Z,6.70
2018-03-31T17:56:27.265Z,6.70
2018-03-31T17:58:56.602Z,6.70
2018-03-31T18:01:25.669Z,6.70
2018-03-31T18:03:54.704Z,6.60
2018-03-31T18:06:25.607Z,6.80
2018-03-31T18:08:53.910Z,6.80
2018-03-31T18:11:22.477Z,6.80
2018-03-31T18:13:51.080Z,6.80
2018-03-31T18:16:20.437Z,6.90
2018-03-31T18:18:48.759Z,6.70
2018-03-31T18:21:16.888Z,6.50
2018-03-31T18:23:45.792Z,6.40
2018-03-31T18:26:13.910Z,6.50
2018-03-31T18:28:42.695Z,6.30
2018-03-31T18:31:13.027Z,6.30
2018-03-31T18:33:41.536Z,6.20
2018-03-31T18:36:11.788Z,6.20
2018-03-31T18:38:41.742Z,6.20
2018-03-31T18:41:10.956Z,6.40
2018-03-31T18:43:39.365Z,6.50
2018-03-31T18:46:07.476Z,6.40
2018-03-31T18:48:35.835Z,6.50
2018-03-31T18:51:04.120Z,6.60
2018-03-31T18:53:33.028Z,6.60
2018-03-31T18:56:02.376Z,6.40
2018-03-31T18:58:31.456Z,6.40
2018-03-31T19:01:00.073Z,6.20
2018-03-31T19:03:31.336Z,6.20
2018-03-31T19:06:03.395Z,6.10
2018-03-31T19:08:31.917Z,6.10
2018-03-31T19:11:00.450Z,6.20
2018-03-31T19:13:28.996Z,6.40
2018-03-31T19:15:58.648Z,6.50
2018-03-31T19:18:27.181Z,6.50
2018-03-31T19:20:55.560Z,6.50
2018-03-31T19:23:25.697Z,6.50
2018-03-31T19:25:56.621Z,6.30
2018-03-31T19:28:25.410Z,6.20
2018-03-31T19:30:55.097Z,6.20
2018-03-31T19:36:09.362Z,6.30
2018-03-31T19:38:37.821Z,6.30
2018-03-31T19:41:06.053Z,6.10
2018-03-31T19:43:34.950Z,6.20
2018-03-31T19:46:07.892Z,6.30
2018-03-31T19:48:36.953Z,6.30
2018-03-31T19:52:29.366Z,6.20
2018-03-31T19:54:58.031Z,6.30
2018-03-31T19:57:29.309Z,6.20
2018-03-31T19:59:58.223Z,6.10
2018-03-31T20:02:27.780Z,5.90
2018-03-31T20:04:56.519Z,5.90
2018-03-31T20:07:25.470Z,5.90
2018-03-31T20:09:55.059Z,6.10
2018-03-31T20:12:27.530Z,6.10
2018-03-31T20:14:57.820Z,6.20
2018-03-31T20:17:27.161Z,6.30
2018-03-31T20:20:01.589Z,6.20
2018-03-31T20:22:31.112Z,6.30
2018-03-31T20:25:00.846Z,6.20
2018-03-31T20:27:31.347Z,6.20
2018-03-31T20:30:00.399Z,6.20
2018-03-31T20:32:28.819Z,6.10
2018-03-31T20:35:02.269Z,5.90
2018-03-31T20:37:34.503Z,5.90
2018-03-31T20:40:03.925Z,6.00
2018-03-31T20:42:34.112Z,6.00
2018-03-31T20:45:03.044Z,6.00
2018-03-31T20:47:31.877Z,6.20
2018-03-31T20:50:00.404Z,6.00
2018-03-31T20:52:34.912Z,6.10
2018-03-31T20:55:05.025Z,6.20
2018-03-31T20:57:33.579Z,6.20
2018-03-31T21:00:02.128Z,6.20
2018-03-31T21:02:30.791Z,6.10
2018-03-31T21:04:59.764Z,5.90
2018-03-31T21:07:33.588Z,6.10
2018-03-31T21:10:02.496Z,6.00
2018-03-31T21:12:30.680Z,6.00
2018-03-31T21:14:59.961Z,6.00
2018-03-31T21:17:28.079Z,6.00
2018-03-31T21:19:56.978Z,6.10
2018-03-31T21:22:27.510Z,6.10
2018-03-31T21:24:59.103Z,6.20
2018-03-31T21:27:29.384Z,6.20
2018-03-31T21:29:58.583Z,6.10
2018-03-31T21:32:27.141Z,6.10
2018-03-31T21:34:56.040Z,6.00
2018-03-31T21:37:24.640Z,5.90
2018-03-31T21:39:53.655Z,5.90
2018-03-31T21:42:22.122Z,6.00
2018-03-31T21:44:52.756Z,6.00
2018-03-31T21:47:22.554Z,6.00
2018-03-31T21:49:51.920Z,6.00
2018-03-31T21:52:20.461Z,6.00
2018-03-31T21:54:50.569Z,5.90
2018-03-31T21:57:19.209Z,5.90
2018-03-31T21:59:49.084Z,5.90
2018-03-31T22:02:17.896Z,5.90
2018-03-31T22:04:47.978Z,5.70
2018-03-31T22:10:39.790Z,5.80
2018-03-31T22:13:12.936Z,5.90
2018-03-31T22:15:57.139Z,5.90
2018-03-31T22:18:26.462Z,5.90
2018-03-31T22:20:57.382Z,5.90
2018-03-31T22:23:26.897Z,5.80
2018-03-31T22:25:56.866Z,5.90
2018-03-31T22:28:28.249Z,5.80
2018-03-31T22:30:56.860Z,5.70
2018-03-31T22:33:26.090Z,5.70
2018-03-31T22:35:55.282Z,5.60
2018-03-31T22:38:23.852Z,5.70
2018-03-31T22:40:52.298Z,5.80
2018-03-31T22:43:27.098Z,5.90
2018-03-31T22:45:55.445Z,5.90
2018-03-31T22:48:23.810Z,5.90
2018-03-31T22:50:52.580Z,5.90
2018-03-31T22:53:21.302Z,6.00
2018-03-31T22:55:49.496Z,6.00
2018-03-31T22:58:19.509Z,6.10
2018-03-31T23:00:48.503Z,6.00
2018-03-31T23:03:17.379Z,6.00
2018-03-31T23:05:46.142Z,6.00
2018-03-31T23:08:14.486Z,5.70
2018-03-31T23:10:43.241Z,5.70
2018-03-31T23:13:12.576Z,5.60
2018-03-31T23:15:42.298Z,5.50
2018-03-31T23:18:10.874Z,5.50
2018-03-31T23:20:39.291Z,5.40
2018-03-31T23:23:08.017Z,5.20
2018-03-31T23:25:36.695Z,5.20
2018-03-31T23:28:06.024Z,5.40
2018-03-31T23:30:34.644Z,5.40
2018-03-31T23:33:02.946Z,5.50
2018-03-31T23:35:32.278Z,5.70
2018-03-31T23:38:01.723Z,5.60
2018-03-31T23:40:31.644Z,5.70
2018-03-31T23:43:00.493Z,5.80
2018-03-31T23:45:30.268Z,5.70
2018-03-31T23:47:58.604Z,5.40
2018-03-31T23:50:29.881Z,5.30
2018-03-31T23:53:02.004Z,5.30
2018-03-31T23:55:31.102Z,5.40
2018-03-31T23:58:00.098Z,5.40
